sensor_id;sensor_type;location;lat;lon;timestamp;temperature;humidity
26081;DHT22;13991;51.174;4.438;2023-08-17T00:00:26;21.90;99.90
26081;DHT22;13991;51.174;4.438;2023-08-17T00:02:52;21.70;99.90
26081;DHT22;13991;51.174;4.438;2023-08-17T00:05:17;21.80;99.90
26081;DHT22;13991;51.174;4.438;2023-08-17T00:07:43;21.70;99.90
26081;DHT22;13991;51.174;4.438;2023-08-17T00:48:47;21.20;99.90
26081;DHT22;13991;51.174;4.438;2023-08-17T00:51:13;21.10;99.90
26081;DHT22;13991;51.174;4.438;2023-08-17T00:53:39;21.20;99.90
26081;DHT22;13991;51.174;4.438;2023-08-17T00:56:05;21.20;99.90
26081;DHT22;13991;51.174;4.438;2023-08-17T00:58:31;21.10;99.90
26081;DHT22;13991;51.174;4.438;2023-08-17T01:00:57;21.20;99.90
26081;DHT22;13991;51.174;4.438;2023-08-17T01:03:24;21.00;99.90
26081;DHT22;13991;51.174;4.438;2023-08-17T01:05:53;20.90;99.90
26081;DHT22;13991;51.174;4.438;2023-08-17T01:08:19;21.00;99.90
26081;DHT22;13991;51.174;4.438;2023-08-17T01:13:35;21.00;99.90
26081;DHT22;13991;51.174;4.438;2023-08-17T01:16:05;21.00;99.90
26081;DHT22;13991;51.174;4.438;2023-08-17T01:18:35;21.10;99.90
26081;DHT22;13991;51.174;4.438;2023-08-17T01:21:05;21.10;99.90
26081;DHT22;13991;51.174;4.438;2023-08-17T01:23:31;21.10;99.90
26081;DHT22;13991;51.174;4.438;2023-08-17T01:25:57;21.00;99.90
26081;DHT22;13991;51.174;4.438;2023-08-17T01:28:23;21.00;99.90
26081;DHT22;13991;51.174;4.438;2023-08-17T01:30:55;21.00;99.90
26081;DHT22;13991;51.174;4.438;2023-08-17T01:33:37;21.00;99.90
26081;DHT22;13991;51.174;4.438;2023-08-17T01:38:44;21.00;99.90
26081;DHT22;13991;51.174;4.438;2023-08-17T01:41:11;21.00;99.90
26081;DHT22;13991;51.174;4.438;2023-08-17T01:43:44;20.80;99.90
26081;DHT22;13991;51.174;4.438;2023-08-17T01:46:15;20.80;99.90
26081;DHT22;13991;51.174;4.438;2023-08-17T01:48:41;20.80;99.90
26081;DHT22;13991;51.174;4.438;2023-08-17T01:51:08;20.70;99.90
26081;DHT22;13991;51.174;4.438;2023-08-17T01:53:33;20.90;99.90
26081;DHT22;13991;51.174;4.438;2023-08-17T01:55:59;20.90;99.90
26081;DHT22;13991;51.174;4.438;2023-08-17T01:58:25;21.00;99.90
26081;DHT22;13991;51.174;4.438;2023-08-17T02:00:50;21.00;99.90
26081;DHT22;13991;51.174;4.438;2023-08-17T02:03:16;20.90;99.90
26081;DHT22;13991;51.174;4.438;2023-08-17T02:05:47;20.90;99.90
26081;DHT22;13991;51.174;4.438;2023-08-17T02:08:13;20.90;99.90
26081;DHT22;13991;51.174;4.438;2023-08-17T02:10:39;20.90;99.90
26081;DHT22;13991;51.174;4.438;2023-08-17T02:13:04;20.90;99.90
26081;DHT22;13991;51.174;4.438;2023-08-17T02:15:30;20.90;99.90
26081;DHT22;13991;51.174;4.438;2023-08-17T02:18:01;20.80;99.90
26081;DHT22;13991;51.174;4.438;2023-08-17T02:20:26;20.90;99.90
26081;DHT22;13991;51.174;4.438;2023-08-17T02:22:52;20.80;99.90
26081;DHT22;13991;51.174;4.438;2023-08-17T02:25:19;20.80;99.90
26081;DHT22;13991;51.174;4.438;2023-08-17T02:27:45;20.90;99.90
26081;DHT22;13991;51.174;4.438;2023-08-17T02:30:11;20.90;99.90
26081;DHT22;13991;51.174;4.438;2023-08-17T02:32:37;20.90;99.90
26081;DHT22;13991;51.174;4.438;2023-08-17T02:35:02;20.80;99.90
26081;DHT22;13991;51.174;4.438;2023-08-17T02:37:28;20.80;99.90
26081;DHT22;13991;51.174;4.438;2023-08-17T02:39:54;20.70;99.90
26081;DHT22;13991;51.174;4.438;2023-08-17T02:42:19;20.60;99.90
26081;DHT22;13991;51.174;4.438;2023-08-17T02:44:45;20.70;99.90
26081;DHT22;13991;51.174;4.438;2023-08-17T02:47:11;20.60;99.90
26081;DHT22;13991;51.174;4.438;2023-08-17T02:49:36;20.50;99.90
26081;DHT22;13991;51.174;4.438;2023-08-17T02:52:02;20.50;99.90
26081;DHT22;13991;51.174;4.438;2023-08-17T02:54:28;20.50;99.90
26081;DHT22;13991;51.174;4.438;2023-08-17T02:56:53;20.50;99.90
26081;DHT22;13991;51.174;4.438;2023-08-17T02:59:19;20.50;99.90
26081;DHT22;13991;51.174;4.438;2023-08-17T03:01:45;20.50;99.90
26081;DHT22;13991;51.174;4.438;2023-08-17T03:04:11;20.50;99.90
26081;DHT22;13991;51.174;4.438;2023-08-17T03:06:36;20.30;99.90
26081;DHT22;13991;51.174;4.438;2023-08-17T03:09:02;20.40;99.90
26081;DHT22;13991;51.174;4.438;2023-08-17T03:11:28;20.40;99.90
26081;DHT22;13991;51.174;4.438;2023-08-17T03:13:53;20.40;99.90
26081;DHT22;13991;51.174;4.438;2023-08-17T03:16:25;20.40;99.90
26081;DHT22;13991;51.174;4.438;2023-08-17T03:18:51;20.40;99.90
26081;DHT22;13991;51.174;4.438;2023-08-17T03:21:17;20.40;99.90
26081;DHT22;13991;51.174;4.438;2023-08-17T03:23:44;20.30;99.90
26081;DHT22;13991;51.174;4.438;2023-08-17T03:26:09;20.20;99.90
26081;DHT22;13991;51.174;4.438;2023-08-17T03:28:35;20.30;99.90
26081;DHT22;13991;51.174;4.438;2023-08-17T03:31:02;20.30;99.90
26081;DHT22;13991;51.174;4.438;2023-08-17T03:33:28;20.30;99.90
26081;DHT22;13991;51.174;4.438;2023-08-17T03:35:54;20.30;99.90
26081;DHT22;13991;51.174;4.438;2023-08-17T03:38:20;20.30;99.90
26081;DHT22;13991;51.174;4.438;2023-08-17T03:40:49;20.20;99.90
26081;DHT22;13991;51.174;4.438;2023-08-17T03:43:15;20.20;99.90
26081;DHT22;13991;51.174;4.438;2023-08-17T03:45:41;20.30;99.90
26081;DHT22;13991;51.174;4.438;2023-08-17T03:48:07;20.30;99.90
26081;DHT22;13991;51.174;4.438;2023-08-17T03:50:33;20.30;99.90
26081;DHT22;13991;51.174;4.438;2023-08-17T03:52:59;20.30;99.90
26081;DHT22;13991;51.174;4.438;2023-08-17T03:55:25;20.30;99.90
26081;DHT22;13991;51.174;4.438;2023-08-17T03:57:50;20.20;99.90
26081;DHT22;13991;51.174;4.438;2023-08-17T04:00:16;20.20;99.90
26081;DHT22;13991;51.174;4.438;2023-08-17T04:02:42;20.20;99.90
26081;DHT22;13991;51.174;4.438;2023-08-17T04:05:08;20.00;99.90
26081;DHT22;13991;51.174;4.438;2023-08-17T04:07:33;19.90;99.90
26081;DHT22;13991;51.174;4.438;2023-08-17T04:09:59;19.80;99.90
26081;DHT22;13991;51.174;4.438;2023-08-17T04:12:25;19.90;99.90
26081;DHT22;13991;51.174;4.438;2023-08-17T04:14:51;20.00;99.90
26081;DHT22;13991;51.174;4.438;2023-08-17T04:17:16;20.00;99.90
26081;DHT22;13991;51.174;4.438;2023-08-17T04:19:42;20.10;99.90
26081;DHT22;13991;51.174;4.438;2023-08-17T04:22:08;20.20;99.90
26081;DHT22;13991;51.174;4.438;2023-08-17T04:24:34;20.20;99.90
26081;DHT22;13991;51.174;4.438;2023-08-17T04:26:59;20.20;99.90
26081;DHT22;13991;51.174;4.438;2023-08-17T04:29:25;20.10;99.90
26081;DHT22;13991;51.174;4.438;2023-08-17T04:31:51;20.10;99.90
26081;DHT22;13991;51.174;4.438;2023-08-17T04:34:16;20.00;99.90
26081;DHT22;13991;51.174;4.438;2023-08-17T04:36:42;20.20;99.90
26081;DHT22;13991;51.174;4.438;2023-08-17T04:39:08;20.20;99.90
26081;DHT22;13991;51.174;4.438;2023-08-17T04:41:34;20.00;99.90
26081;DHT22;13991;51.174;4.438;2023-08-17T04:44:00;20.00;99.90
26081;DHT22;13991;51.174;4.438;2023-08-17T04:46:26;20.00;99.90
26081;DHT22;13991;51.174;4.438;2023-08-17T04:48:51;20.10;99.90
26081;DHT22;13991;51.174;4.438;2023-08-17T04:51:17;20.10;99.90
26081;DHT22;13991;51.174;4.438;2023-08-17T04:53:43;20.10;99.90
26081;DHT22;13991;51.174;4.438;2023-08-17T04:56:09;20.10;99.90
26081;DHT22;13991;51.174;4.438;2023-08-17T04:58:35;20.20;99.90
26081;DHT22;13991;51.174;4.438;2023-08-17T05:01:00;20.20;99.90
26081;DHT22;13991;51.174;4.438;2023-08-17T05:03:26;20.20;99.90
26081;DHT22;13991;51.174;4.438;2023-08-17T05:05:52;20.20;99.90
26081;DHT22;13991;51.174;4.438;2023-08-17T05:08:18;20.10;99.90
26081;DHT22;13991;51.174;4.438;2023-08-17T05:10:44;20.10;99.90
26081;DHT22;13991;51.174;4.438;2023-08-17T05:13:10;20.10;99.90
26081;DHT22;13991;51.174;4.438;2023-08-17T05:15:36;20.10;99.90
26081;DHT22;13991;51.174;4.438;2023-08-17T05:18:01;20.10;99.90
26081;DHT22;13991;51.174;4.438;2023-08-17T05:20:27;20.00;99.90
26081;DHT22;13991;51.174;4.438;2023-08-17T05:22:52;20.00;99.90
26081;DHT22;13991;51.174;4.438;2023-08-17T05:25:18;20.10;99.90
26081;DHT22;13991;51.174;4.438;2023-08-17T05:31:07;20.00;99.90
26081;DHT22;13991;51.174;4.438;2023-08-17T05:33:32;19.80;99.90
26081;DHT22;13991;51.174;4.438;2023-08-17T05:35:59;19.80;99.90
26081;DHT22;13991;51.174;4.438;2023-08-17T05:38:25;20.00;99.90
26081;DHT22;13991;51.174;4.438;2023-08-17T05:40:55;19.90;99.90
26081;DHT22;13991;51.174;4.438;2023-08-17T05:43:22;19.80;99.90
26081;DHT22;13991;51.174;4.438;2023-08-17T05:45:47;19.90;99.90
26081;DHT22;13991;51.174;4.438;2023-08-17T05:48:13;19.80;99.90
26081;DHT22;13991;51.174;4.438;2023-08-17T05:50:42;19.80;99.90
26081;DHT22;13991;51.174;4.438;2023-08-17T05:53:07;19.90;99.90
26081;DHT22;13991;51.174;4.438;2023-08-17T05:55:33;19.80;99.90
26081;DHT22;13991;51.174;4.438;2023-08-17T05:57:59;19.90;99.90
26081;DHT22;13991;51.174;4.438;2023-08-17T06:00:25;19.90;99.90
26081;DHT22;13991;51.174;4.438;2023-08-17T06:02:51;19.90;99.90
26081;DHT22;13991;51.174;4.438;2023-08-17T06:05:17;19.80;99.90
26081;DHT22;13991;51.174;4.438;2023-08-17T06:07:43;19.90;99.90
26081;DHT22;13991;51.174;4.438;2023-08-17T06:10:09;19.80;99.90
26081;DHT22;13991;51.174;4.438;2023-08-17T06:12:35;19.80;99.90
26081;DHT22;13991;51.174;4.438;2023-08-17T06:15:04;19.80;99.90
26081;DHT22;13991;51.174;4.438;2023-08-17T06:17:30;19.80;99.90
26081;DHT22;13991;51.174;4.438;2023-08-17T06:19:56;19.70;99.90
26081;DHT22;13991;51.174;4.438;2023-08-17T06:22:21;19.80;99.90
26081;DHT22;13991;51.174;4.438;2023-08-17T06:24:47;19.80;99.90
26081;DHT22;13991;51.174;4.438;2023-08-17T06:27:16;19.80;99.90
26081;DHT22;13991;51.174;4.438;2023-08-17T06:29:41;19.80;99.90
26081;DHT22;13991;51.174;4.438;2023-08-17T06:32:07;19.90;99.90
26081;DHT22;13991;51.174;4.438;2023-08-17T06:34:33;19.80;99.90
26081;DHT22;13991;51.174;4.438;2023-08-17T06:37:01;19.80;99.90
26081;DHT22;13991;51.174;4.438;2023-08-17T06:39:27;19.90;99.90
26081;DHT22;13991;51.174;4.438;2023-08-17T06:41:53;20.00;99.90
26081;DHT22;13991;51.174;4.438;2023-08-17T06:44:19;20.00;99.90
26081;DHT22;13991;51.174;4.438;2023-08-17T06:46:45;19.90;99.90
26081;DHT22;13991;51.174;4.438;2023-08-17T06:49:11;19.90;99.90
26081;DHT22;13991;51.174;4.438;2023-08-17T06:51:38;19.90;99.90
26081;DHT22;13991;51.174;4.438;2023-08-17T06:54:04;19.90;99.90
26081;DHT22;13991;51.174;4.438;2023-08-17T06:56:30;20.00;99.90
26081;DHT22;13991;51.174;4.438;2023-08-17T06:58:56;20.00;99.90
26081;DHT22;13991;51.174;4.438;2023-08-17T07:01:21;19.90;99.90
26081;DHT22;13991;51.174;4.438;2023-08-17T07:03:47;20.00;99.90
26081;DHT22;13991;51.174;4.438;2023-08-17T07:06:13;19.90;99.90
26081;DHT22;13991;51.174;4.438;2023-08-17T07:08:39;19.90;99.90
26081;DHT22;13991;51.174;4.438;2023-08-17T07:11:04;19.90;99.90
26081;DHT22;13991;51.174;4.438;2023-08-17T07:13:31;19.80;99.90
26081;DHT22;13991;51.174;4.438;2023-08-17T07:15:57;19.90;99.90
26081;DHT22;13991;51.174;4.438;2023-08-17T07:18:23;19.90;99.90
26081;DHT22;13991;51.174;4.438;2023-08-17T07:20:48;19.90;99.90
26081;DHT22;13991;51.174;4.438;2023-08-17T07:23:15;20.00;99.90
26081;DHT22;13991;51.174;4.438;2023-08-17T07:25:40;20.10;99.90
26081;DHT22;13991;51.174;4.438;2023-08-17T07:28:06;20.10;99.90
26081;DHT22;13991;51.174;4.438;2023-08-17T07:30:32;20.20;99.90
26081;DHT22;13991;51.174;4.438;2023-08-17T07:32:57;20.30;99.90
26081;DHT22;13991;51.174;4.438;2023-08-17T07:35:23;20.40;99.90
26081;DHT22;13991;51.174;4.438;2023-08-17T07:37:49;20.40;99.90
26081;DHT22;13991;51.174;4.438;2023-08-17T07:40:16;20.50;99.90
26081;DHT22;13991;51.174;4.438;2023-08-17T07:42:41;20.60;99.90
26081;DHT22;13991;51.174;4.438;2023-08-17T07:45:07;20.50;99.90
26081;DHT22;13991;51.174;4.438;2023-08-17T07:47:34;20.60;99.90
26081;DHT22;13991;51.174;4.438;2023-08-17T07:50:02;20.50;99.90
26081;DHT22;13991;51.174;4.438;2023-08-17T07:52:28;20.60;99.90
26081;DHT22;13991;51.174;4.438;2023-08-17T07:54:53;20.50;99.90
26081;DHT22;13991;51.174;4.438;2023-08-17T07:57:19;20.50;99.90
26081;DHT22;13991;51.174;4.438;2023-08-17T07:59:45;20.60;99.90
26081;DHT22;13991;51.174;4.438;2023-08-17T08:02:10;20.60;99.90
26081;DHT22;13991;51.174;4.438;2023-08-17T08:04:36;20.70;99.90
26081;DHT22;13991;51.174;4.438;2023-08-17T08:07:02;20.70;99.90
26081;DHT22;13991;51.174;4.438;2023-08-17T08:09:27;20.60;99.90
26081;DHT22;13991;51.174;4.438;2023-08-17T08:11:53;20.70;99.90
26081;DHT22;13991;51.174;4.438;2023-08-17T08:14:18;20.80;99.90
26081;DHT22;13991;51.174;4.438;2023-08-17T08:16:44;20.80;99.90
26081;DHT22;13991;51.174;4.438;2023-08-17T08:19:10;20.80;99.90
26081;DHT22;13991;51.174;4.438;2023-08-17T08:21:35;20.80;99.90
26081;DHT22;13991;51.174;4.438;2023-08-17T08:24:01;20.90;99.90
26081;DHT22;13991;51.174;4.438;2023-08-17T08:26:26;20.90;99.90
26081;DHT22;13991;51.174;4.438;2023-08-17T08:28:52;20.90;99.90
26081;DHT22;13991;51.174;4.438;2023-08-17T08:31:18;20.90;99.90
26081;DHT22;13991;51.174;4.438;2023-08-17T08:33:44;20.90;99.90
26081;DHT22;13991;51.174;4.438;2023-08-17T08:36:09;20.90;99.90
26081;DHT22;13991;51.174;4.438;2023-08-17T08:38:35;21.00;99.90
26081;DHT22;13991;51.174;4.438;2023-08-17T08:41:01;21.00;99.90
26081;DHT22;13991;51.174;4.438;2023-08-17T08:43:28;21.00;99.90
26081;DHT22;13991;51.174;4.438;2023-08-17T08:45:54;20.90;99.90
26081;DHT22;13991;51.174;4.438;2023-08-17T08:48:22;21.00;99.90
26081;DHT22;13991;51.174;4.438;2023-08-17T08:50:50;21.00;99.90
26081;DHT22;13991;51.174;4.438;2023-08-17T08:53:17;20.90;99.90
26081;DHT22;13991;51.174;4.438;2023-08-17T08:55:54;20.90;99.90
26081;DHT22;13991;51.174;4.438;2023-08-17T08:58:21;20.90;99.90
26081;DHT22;13991;51.174;4.438;2023-08-17T09:00:47;20.90;99.90
26081;DHT22;13991;51.174;4.438;2023-08-17T09:03:14;20.80;99.90
26081;DHT22;13991;51.174;4.438;2023-08-17T09:05:42;20.90;99.90
26081;DHT22;13991;51.174;4.438;2023-08-17T09:08:10;21.00;99.90
26081;DHT22;13991;51.174;4.438;2023-08-17T09:10:38;21.00;99.90
26081;DHT22;13991;51.174;4.438;2023-08-17T09:13:04;21.00;99.90
26081;DHT22;13991;51.174;4.438;2023-08-17T09:15:29;21.10;99.90
26081;DHT22;13991;51.174;4.438;2023-08-17T09:17:55;21.10;99.90
26081;DHT22;13991;51.174;4.438;2023-08-17T09:20:39;21.20;99.90
26081;DHT22;13991;51.174;4.438;2023-08-17T09:23:09;21.30;99.90
26081;DHT22;13991;51.174;4.438;2023-08-17T09:25:41;21.20;99.90
26081;DHT22;13991;51.174;4.438;2023-08-17T09:28:09;21.20;99.90
26081;DHT22;13991;51.174;4.438;2023-08-17T09:30:56;21.20;99.90
26081;DHT22;13991;51.174;4.438;2023-08-17T09:33:23;21.30;99.90
26081;DHT22;13991;51.174;4.438;2023-08-17T09:35:50;21.20;99.90
26081;DHT22;13991;51.174;4.438;2023-08-17T09:38:17;21.30;99.90
26081;DHT22;13991;51.174;4.438;2023-08-17T09:40:42;21.40;99.90
26081;DHT22;13991;51.174;4.438;2023-08-17T09:43:09;21.50;99.90
26081;DHT22;13991;51.174;4.438;2023-08-17T09:45:39;21.60;99.90
26081;DHT22;13991;51.174;4.438;2023-08-17T09:48:08;21.70;99.90
26081;DHT22;13991;51.174;4.438;2023-08-17T09:50:34;21.70;99.90
26081;DHT22;13991;51.174;4.438;2023-08-17T09:53:04;21.50;99.90
26081;DHT22;13991;51.174;4.438;2023-08-17T09:55:30;21.70;99.90
26081;DHT22;13991;51.174;4.438;2023-08-17T09:58:00;21.70;99.90
26081;DHT22;13991;51.174;4.438;2023-08-17T10:00:27;21.80;99.90
26081;DHT22;13991;51.174;4.438;2023-08-17T10:02:55;21.70;99.90
26081;DHT22;13991;51.174;4.438;2023-08-17T10:05:25;21.90;99.90
26081;DHT22;13991;51.174;4.438;2023-08-17T10:07:56;22.00;99.90
26081;DHT22;13991;51.174;4.438;2023-08-17T10:10:27;22.00;99.90
26081;DHT22;13991;51.174;4.438;2023-08-17T10:15:55;22.30;99.90
26081;DHT22;13991;51.174;4.438;2023-08-17T10:21:23;22.30;99.90
26081;DHT22;13991;51.174;4.438;2023-08-17T10:23:51;22.20;99.90
26081;DHT22;13991;51.174;4.438;2023-08-17T10:26:17;22.20;99.90
26081;DHT22;13991;51.174;4.438;2023-08-17T10:28:44;22.30;99.90
26081;DHT22;13991;51.174;4.438;2023-08-17T10:31:10;22.30;99.90
26081;DHT22;13991;51.174;4.438;2023-08-17T10:33:36;22.20;99.90
26081;DHT22;13991;51.174;4.438;2023-08-17T10:36:05;22.10;99.90
26081;DHT22;13991;51.174;4.438;2023-08-17T10:38:31;22.30;99.90
26081;DHT22;13991;51.174;4.438;2023-08-17T10:41:13;22.30;99.90
26081;DHT22;13991;51.174;4.438;2023-08-17T10:43:59;22.20;99.90
26081;DHT22;13991;51.174;4.438;2023-08-17T10:46:37;22.10;99.90
26081;DHT22;13991;51.174;4.438;2023-08-17T10:49:07;22.20;99.90
26081;DHT22;13991;51.174;4.438;2023-08-17T10:51:33;22.30;99.90
26081;DHT22;13991;51.174;4.438;2023-08-17T10:54:02;22.30;99.90
26081;DHT22;13991;51.174;4.438;2023-08-17T10:56:29;22.40;99.90
26081;DHT22;13991;51.174;4.438;2023-08-17T10:58:59;22.30;99.90
26081;DHT22;13991;51.174;4.438;2023-08-17T11:01:36;22.30;99.90
26081;DHT22;13991;51.174;4.438;2023-08-17T11:04:22;22.20;99.90
26081;DHT22;13991;51.174;4.438;2023-08-17T11:07:01;22.30;99.90
26081;DHT22;13991;51.174;4.438;2023-08-17T11:09:28;22.30;99.90
26081;DHT22;13991;51.174;4.438;2023-08-17T11:11:55;22.20;99.90
26081;DHT22;13991;51.174;4.438;2023-08-17T11:14:25;22.10;99.90
26081;DHT22;13991;51.174;4.438;2023-08-17T11:16:53;22.10;99.90
26081;DHT22;13991;51.174;4.438;2023-08-17T11:19:19;22.20;99.90
26081;DHT22;13991;51.174;4.438;2023-08-17T11:21:47;22.20;99.90
26081;DHT22;13991;51.174;4.438;2023-08-17T11:24:13;22.30;99.90
26081;DHT22;13991;51.174;4.438;2023-08-17T11:26:41;22.20;99.90
26081;DHT22;13991;51.174;4.438;2023-08-17T11:29:07;22.20;99.90
26081;DHT22;13991;51.174;4.438;2023-08-17T11:31:40;22.30;99.90
26081;DHT22;13991;51.174;4.438;2023-08-17T11:34:06;22.20;99.90
26081;DHT22;13991;51.174;4.438;2023-08-17T11:36:33;22.10;99.90
26081;DHT22;13991;51.174;4.438;2023-08-17T11:39:02;22.20;99.90
26081;DHT22;13991;51.174;4.438;2023-08-17T11:41:29;22.10;99.90
26081;DHT22;13991;51.174;4.438;2023-08-17T11:43:55;22.10;99.90
26081;DHT22;13991;51.174;4.438;2023-08-17T11:46:21;22.20;99.90
26081;DHT22;13991;51.174;4.438;2023-08-17T11:48:48;22.30;99.90
26081;DHT22;13991;51.174;4.438;2023-08-17T11:51:30;22.40;99.90
26081;DHT22;13991;51.174;4.438;2023-08-17T11:54:17;22.40;99.90
26081;DHT22;13991;51.174;4.438;2023-08-17T11:56:43;22.30;99.90
26081;DHT22;13991;51.174;4.438;2023-08-17T11:59:35;22.20;99.90
26081;DHT22;13991;51.174;4.438;2023-08-17T12:02:01;22.20;99.90
26081;DHT22;13991;51.174;4.438;2023-08-17T12:04:27;22.30;99.90
26081;DHT22;13991;51.174;4.438;2023-08-17T12:06:53;22.40;99.90
26081;DHT22;13991;51.174;4.438;2023-08-17T12:09:22;22.50;99.90
26081;DHT22;13991;51.174;4.438;2023-08-17T12:11:52;22.50;99.90
26081;DHT22;13991;51.174;4.438;2023-08-17T12:14:20;22.50;99.90
26081;DHT22;13991;51.174;4.438;2023-08-17T12:16:47;22.50;99.90
26081;DHT22;13991;51.174;4.438;2023-08-17T12:19:14;22.60;99.90
26081;DHT22;13991;51.174;4.438;2023-08-17T12:21:41;22.50;99.90
26081;DHT22;13991;51.174;4.438;2023-08-17T12:24:09;22.50;99.90
26081;DHT22;13991;51.174;4.438;2023-08-17T12:26:35;22.40;99.90
26081;DHT22;13991;51.174;4.438;2023-08-17T12:29:05;22.50;99.90
26081;DHT22;13991;51.174;4.438;2023-08-17T12:31:32;22.50;99.90
26081;DHT22;13991;51.174;4.438;2023-08-17T12:33:58;22.70;99.90
26081;DHT22;13991;51.174;4.438;2023-08-17T12:36:23;22.70;99.90
26081;DHT22;13991;51.174;4.438;2023-08-17T12:38:49;22.80;99.90
26081;DHT22;13991;51.174;4.438;2023-08-17T12:41:15;22.60;99.90
26081;DHT22;13991;51.174;4.438;2023-08-17T12:43:42;22.50;99.90
26081;DHT22;13991;51.174;4.438;2023-08-17T12:46:07;22.60;99.90
26081;DHT22;13991;51.174;4.438;2023-08-17T12:48:33;22.60;99.90
26081;DHT22;13991;51.174;4.438;2023-08-17T12:50:59;22.70;99.90
26081;DHT22;13991;51.174;4.438;2023-08-17T12:53:24;22.70;99.90
26081;DHT22;13991;51.174;4.438;2023-08-17T12:55:50;22.90;99.90
26081;DHT22;13991;51.174;4.438;2023-08-17T12:58:16;23.00;99.90
26081;DHT22;13991;51.174;4.438;2023-08-17T13:00:41;23.00;99.90
26081;DHT22;13991;51.174;4.438;2023-08-17T13:03:07;22.80;99.90
26081;DHT22;13991;51.174;4.438;2023-08-17T13:05:33;22.90;99.90
26081;DHT22;13991;51.174;4.438;2023-08-17T13:07:59;23.00;99.90
26081;DHT22;13991;51.174;4.438;2023-08-17T13:10:25;23.10;99.90
26081;DHT22;13991;51.174;4.438;2023-08-17T13:12:50;22.90;99.90
26081;DHT22;13991;51.174;4.438;2023-08-17T13:15:21;22.90;99.90
26081;DHT22;13991;51.174;4.438;2023-08-17T13:17:47;22.90;99.90
26081;DHT22;13991;51.174;4.438;2023-08-17T13:20:13;22.80;99.90
26081;DHT22;13991;51.174;4.438;2023-08-17T13:22:39;22.70;99.90
26081;DHT22;13991;51.174;4.438;2023-08-17T13:25:05;22.80;99.90
26081;DHT22;13991;51.174;4.438;2023-08-17T13:27:31;22.90;99.90
26081;DHT22;13991;51.174;4.438;2023-08-17T13:29:57;22.90;99.90
26081;DHT22;13991;51.174;4.438;2023-08-17T13:32:24;22.80;99.90
26081;DHT22;13991;51.174;4.438;2023-08-17T13:34:51;22.80;99.90
26081;DHT22;13991;51.174;4.438;2023-08-17T13:37:16;22.80;99.90
26081;DHT22;13991;51.174;4.438;2023-08-17T13:39:43;22.80;99.90
26081;DHT22;13991;51.174;4.438;2023-08-17T13:42:08;22.90;99.90
26081;DHT22;13991;51.174;4.438;2023-08-17T13:44:34;22.90;99.90
26081;DHT22;13991;51.174;4.438;2023-08-17T13:47:00;23.10;99.90
26081;DHT22;13991;51.174;4.438;2023-08-17T13:49:26;23.10;99.90
26081;DHT22;13991;51.174;4.438;2023-08-17T13:51:55;23.30;99.90
26081;DHT22;13991;51.174;4.438;2023-08-17T13:54:22;23.10;99.90
26081;DHT22;13991;51.174;4.438;2023-08-17T13:56:48;22.90;99.90
26081;DHT22;13991;51.174;4.438;2023-08-17T13:59:13;23.00;99.90
26081;DHT22;13991;51.174;4.438;2023-08-17T14:01:39;22.90;99.90
26081;DHT22;13991;51.174;4.438;2023-08-17T14:04:06;22.80;99.90
26081;DHT22;13991;51.174;4.438;2023-08-17T14:06:37;22.80;99.90
26081;DHT22;13991;51.174;4.438;2023-08-17T14:09:03;22.80;99.90
26081;DHT22;13991;51.174;4.438;2023-08-17T14:11:28;22.80;99.90
26081;DHT22;13991;51.174;4.438;2023-08-17T14:13:54;22.90;99.90
26081;DHT22;13991;51.174;4.438;2023-08-17T14:16:20;22.90;99.90
26081;DHT22;13991;51.174;4.438;2023-08-17T14:18:45;23.00;99.90
26081;DHT22;13991;51.174;4.438;2023-08-17T14:21:11;23.00;99.90
26081;DHT22;13991;51.174;4.438;2023-08-17T14:23:38;23.10;99.90
26081;DHT22;13991;51.174;4.438;2023-08-17T14:26:05;23.10;99.90
26081;DHT22;13991;51.174;4.438;2023-08-17T14:28:31;23.00;99.90
26081;DHT22;13991;51.174;4.438;2023-08-17T14:30:56;23.00;99.90
26081;DHT22;13991;51.174;4.438;2023-08-17T14:33:22;22.90;99.90
26081;DHT22;13991;51.174;4.438;2023-08-17T14:35:48;22.90;99.90
26081;DHT22;13991;51.174;4.438;2023-08-17T14:38:14;23.00;99.90
26081;DHT22;13991;51.174;4.438;2023-08-17T14:40:44;23.10;99.90
26081;DHT22;13991;51.174;4.438;2023-08-17T14:43:14;23.20;99.90
26081;DHT22;13991;51.174;4.438;2023-08-17T14:45:41;23.20;99.90
26081;DHT22;13991;51.174;4.438;2023-08-17T14:48:07;23.30;99.90
26081;DHT22;13991;51.174;4.438;2023-08-17T14:50:36;23.30;99.90
26081;DHT22;13991;51.174;4.438;2023-08-17T14:53:03;23.30;99.90
26081;DHT22;13991;51.174;4.438;2023-08-17T14:55:30;23.50;99.90
26081;DHT22;13991;51.174;4.438;2023-08-17T14:57:56;23.50;99.90
26081;DHT22;13991;51.174;4.438;2023-08-17T15:00:23;23.50;99.90
26081;DHT22;13991;51.174;4.438;2023-08-17T15:02:49;23.60;99.90
26081;DHT22;13991;51.174;4.438;2023-08-17T15:05:15;23.60;99.90
26081;DHT22;13991;51.174;4.438;2023-08-17T15:07:41;23.60;99.90
26081;DHT22;13991;51.174;4.438;2023-08-17T15:10:07;23.50;99.90
26081;DHT22;13991;51.174;4.438;2023-08-17T15:12:34;23.30;99.90
26081;DHT22;13991;51.174;4.438;2023-08-17T15:15:00;23.40;99.90
26081;DHT22;13991;51.174;4.438;2023-08-17T15:17:26;23.40;99.90
26081;DHT22;13991;51.174;4.438;2023-08-17T15:19:52;23.40;99.90
26081;DHT22;13991;51.174;4.438;2023-08-17T15:22:18;23.30;99.90
26081;DHT22;13991;51.174;4.438;2023-08-17T15:24:45;23.30;99.90
26081;DHT22;13991;51.174;4.438;2023-08-17T15:27:12;23.30;99.90
26081;DHT22;13991;51.174;4.438;2023-08-17T15:29:39;23.20;99.90
26081;DHT22;13991;51.174;4.438;2023-08-17T15:32:05;23.10;99.90
26081;DHT22;13991;51.174;4.438;2023-08-17T15:34:31;23.10;99.90
26081;DHT22;13991;51.174;4.438;2023-08-17T15:36:57;23.10;99.90
26081;DHT22;13991;51.174;4.438;2023-08-17T15:39:23;23.10;99.90
26081;DHT22;13991;51.174;4.438;2023-08-17T15:41:49;23.10;99.90
26081;DHT22;13991;51.174;4.438;2023-08-17T15:44:15;23.00;99.90
26081;DHT22;13991;51.174;4.438;2023-08-17T15:46:41;23.00;99.90
26081;DHT22;13991;51.174;4.438;2023-08-17T15:49:07;22.90;99.90
26081;DHT22;13991;51.174;4.438;2023-08-17T15:51:32;22.70;99.90
26081;DHT22;13991;51.174;4.438;2023-08-17T15:53:59;22.70;99.90
26081;DHT22;13991;51.174;4.438;2023-08-17T15:56:25;22.80;99.90
26081;DHT22;13991;51.174;4.438;2023-08-17T15:58:52;22.80;99.90
26081;DHT22;13991;51.174;4.438;2023-08-17T16:01:17;22.70;99.90
26081;DHT22;13991;51.174;4.438;2023-08-17T16:03:44;22.70;99.90
26081;DHT22;13991;51.174;4.438;2023-08-17T16:06:10;22.70;99.90
26081;DHT22;13991;51.174;4.438;2023-08-17T16:08:35;22.80;99.90
26081;DHT22;13991;51.174;4.438;2023-08-17T16:11:01;22.80;99.90
26081;DHT22;13991;51.174;4.438;2023-08-17T16:13:27;22.80;99.90
26081;DHT22;13991;51.174;4.438;2023-08-17T16:15:55;22.80;99.90
26081;DHT22;13991;51.174;4.438;2023-08-17T16:18:21;22.80;99.90
26081;DHT22;13991;51.174;4.438;2023-08-17T16:20:47;22.70;99.90